Hauptseite
METAR-TAF:

METAR-TAF

Flughäfen :

Fliegerhorst Meppen

Meppen, Deutschland

Breite: 52-43-24N, Länge: 007-19-35E, Höhe: 21 m

Beobachtung

Neuester Wetterbericht von vor 39 Minuten, um 04:20 UTC
Wind 3 kt aus Süd
Temperatur 9°C
Luftfeuchtigkeit 81%
Luftdruck 1021 hPa
Sichtweite 10 km oder mehr
Leicht bewölkt in der Höhe von 6300 ft
Durchbrochene Bewölkung in der Höhe von 9100 ft

METAR: ETWM 180420Z 18003KT 9999 FEW063 BKN091 09/06 Q1021 BLU

Zeit: 06:59 (04:59 UTC)


TAF: fehlend

Wetterbeobachtungen und Prognosen von mehr als 4000 Flughäfen (METAR und TAF Bericht).

Die verfügbaren Stationen werden durch gelbe und rote Markierungen auf der Karte dargestellt.

Führen Sie die Maus auf sie, um den Namen der Station zu sehen.

Darauf klicken, um die Beobachtung von Wetterbeobachtungen und Prognosen zu sehen.

Um die Karte zu ändern : klicken Sie auf den grünen Tasten mit einem schwarzen Kreuz Zum Vergrößern, auf den grünen Button mit einem Gedankenstrich zu verkleinern, oder auf die grünen Pfeile für benachbarte Karten.


METAR-TAF: